Time;durP1;ratioP1;P1;durP2;ratioP2;P2;SDS_P1;SDS_P2;PMS_P1;PMS_P2;Temp;Humidity;BMP_temperature;BMP_pressure;BME280_temperature;BME280_humidity;BME280_pressure;Samples;Min_cycle;Max_cycle;Signal;HPM_P1;HPM_P2
2022/12/22 03:28:16;;;;;;;;;;;8.80;99.90;;;;;;5006603;28;20506;-67
2022/12/22 03:30:42;;;;;;;;;;;8.80;99.90;;;;;;5011844;28;19996;-68
2022/12/22 03:33:07;;;;;;;;;;;8.70;99.90;;;;;;5005984;28;19913;-67
2022/12/22 03:35:33;;;;;;;;;;;8.70;99.90;;;;;;5007747;28;19918;-66
2022/12/22 03:38:02;;;;;;;;;;;8.70;99.90;;;;;;5012727;28;20365;-67
2022/12/22 03:40:28;;;;;;;;;;;8.80;99.90;;;;;;5005172;28;19928;-67
2022/12/22 03:48:22;;;;;;;;;;;8.80;99.90;;;;;;5008170;28;19968;-67
2022/12/22 03:50:48;;;;;;;;;;;8.80;99.90;;;;;;5005374;28;19953;-67
2022/12/22 03:53:13;;;;;;;;;;;8.80;99.90;;;;;;5007849;28;19932;-67
2022/12/22 03:55:39;;;;;;;;;;;8.90;99.90;;;;;;5012500;28;20298;-66
2022/12/22 03:58:04;;;;;;;;;;;8.80;99.90;;;;;;5009051;28;19922;-67
2022/12/22 04:00:30;;;;;;;;;;;8.80;99.90;;;;;;5003571;28;19936;-66
2022/12/22 04:02:59;;;;;;;;;;;8.80;99.90;;;;;;5010242;28;19914;-67
2022/12/22 04:05:24;;;;;;;;;;;8.80;99.90;;;;;;5014522;28;19917;-67
2022/12/22 04:07:50;;;;;;;;;;;8.80;99.90;;;;;;5010990;28;19917;-67
2022/12/22 04:13:00;;;;;;;;;;;8.80;99.90;;;;;;5005472;28;19921;-66
2022/12/22 04:15:27;;;;;;;;;;;8.80;99.90;;;;;;5015969;28;19914;-68
2022/12/22 04:17:52;;;;;;;;;;;8.80;99.90;;;;;;5023957;28;19944;-66
2022/12/22 04:20:19;;;;;;;;;;;8.80;99.90;;;;;;5008660;28;19917;-66
2022/12/22 04:22:44;;;;;;;;;;;8.80;99.90;;;;;;5007715;28;19917;-67
2022/12/22 04:25:10;;;;;;;;;;;8.80;99.90;;;;;;5007183;28;19914;-66
2022/12/22 04:27:36;;;;;;;;;;;8.80;99.90;;;;;;4999509;28;19921;-67
2022/12/22 04:30:02;;;;;;;;;;;8.80;99.90;;;;;;4996052;28;19917;-66
2022/12/22 04:32:27;;;;;;;;;;;8.70;99.90;;;;;;4994653;28;19941;-67
2022/12/22 04:34:53;;;;;;;;;;;8.70;99.90;;;;;;4993048;28;20019;-67
2022/12/22 04:37:18;;;;;;;;;;;8.70;99.90;;;;;;4999321;28;19975;-68
2022/12/22 04:39:44;;;;;;;;;;;8.70;99.90;;;;;;5010338;28;20028;-67
2022/12/22 04:42:10;;;;;;;;;;;8.70;99.90;;;;;;4994666;28;19922;-67
2022/12/22 04:44:35;;;;;;;;;;;8.70;99.90;;;;;;4992796;28;19921;-68
2022/12/22 04:47:01;;;;;;;;;;;8.70;99.90;;;;;;4992824;28;20009;-68
2022/12/22 04:49:26;;;;;;;;;;;8.70;99.90;;;;;;4993422;28;19949;-66
2022/12/22 04:51:52;;;;;;;;;;;8.70;99.90;;;;;;4997983;28;20628;-69
2022/12/22 04:54:17;;;;;;;;;;;8.70;99.90;;;;;;4976213;28;19926;-67
2022/12/22 04:56:43;;;;;;;;;;;8.70;99.90;;;;;;4997682;28;20543;-68
2022/12/22 04:59:08;;;;;;;;;;;8.60;99.90;;;;;;5000348;28;19913;-67
2022/12/22 05:01:34;;;;;;;;;;;8.60;99.90;;;;;;5007483;28;19913;-68
2022/12/22 05:04:00;;;;;;;;;;;8.60;99.90;;;;;;4985627;28;21763;-68
2022/12/22 05:06:25;;;;;;;;;;;8.60;99.90;;;;;;4993184;28;19925;-68
2022/12/22 05:08:51;;;;;;;;;;;8.60;99.90;;;;;;4993952;28;20305;-68
2022/12/22 05:11:16;;;;;;;;;;;8.60;99.90;;;;;;5003248;28;20357;-68
2022/12/22 05:13:42;;;;;;;;;;;8.70;99.90;;;;;;4993672;28;20020;-66
2022/12/22 05:16:09;;;;;;;;;;;8.70;99.90;;;;;;4995888;28;19932;-68
2022/12/22 05:18:35;;;;;;;;;;;8.60;99.90;;;;;;4992658;28;19946;-66
2022/12/22 05:21:02;;;;;;;;;;;8.70;99.90;;;;;;4990213;28;20018;-67
2022/12/22 05:23:30;;;;;;;;;;;8.70;99.90;;;;;;4992051;28;20198;-67
2022/12/22 05:25:55;;;;;;;;;;;8.70;99.90;;;;;;4997289;28;20193;-69
2022/12/22 05:28:21;;;;;;;;;;;8.80;99.90;;;;;;4994206;28;19914;-68
2022/12/22 05:30:46;;;;;;;;;;;8.70;99.90;;;;;;4993765;28;19914;-67
2022/12/22 05:33:12;;;;;;;;;;;8.80;99.90;;;;;;4994708;28;19941;-68
2022/12/22 05:35:37;;;;;;;;;;;8.80;99.90;;;;;;4993130;28;20300;-68
2022/12/22 05:38:03;;;;;;;;;;;8.70;99.90;;;;;;4995882;28;19949;-67
2022/12/22 05:40:29;;;;;;;;;;;8.70;99.90;;;;;;4997318;28;19918;-68
2022/12/22 05:42:54;;;;;;;;;;;8.80;99.90;;;;;;5012118;28;19914;-68
2022/12/22 05:45:20;;;;;;;;;;;8.70;99.90;;;;;;5011528;28;19920;-68
2022/12/22 05:47:47;;;;;;;;;;;8.80;99.90;;;;;;5004813;28;20146;-68
2022/12/22 05:50:13;;;;;;;;;;;8.80;99.90;;;;;;4996392;28;19931;-67
2022/12/22 05:52:39;;;;;;;;;;;8.70;99.90;;;;;;4996740;28;20378;-69
2022/12/22 05:55:05;;;;;;;;;;;8.70;99.90;;;;;;4996287;28;19917;-68
2022/12/22 05:57:31;;;;;;;;;;;8.80;99.90;;;;;;4997185;28;19917;-68
2022/12/22 05:59:56;;;;;;;;;;;8.70;99.90;;;;;;4997572;28;20000;-68
2022/12/22 06:02:22;;;;;;;;;;;8.70;99.90;;;;;;4991251;28;19924;-68
2022/12/22 06:04:48;;;;;;;;;;;8.80;99.90;;;;;;5009725;28;19965;-68
2022/12/22 06:07:13;;;;;;;;;;;8.80;99.90;;;;;;4992833;28;19933;-68
2022/12/22 06:09:39;;;;;;;;;;;8.80;99.90;;;;;;5012483;28;20016;-69
2022/12/22 06:12:05;;;;;;;;;;;8.70;99.90;;;;;;5007319;28;19952;-68
2022/12/22 06:14:31;;;;;;;;;;;8.70;99.90;;;;;;5012899;28;19983;-69
2022/12/22 06:16:56;;;;;;;;;;;8.80;99.90;;;;;;5006528;28;19918;-68
2022/12/22 06:19:22;;;;;;;;;;;8.80;99.90;;;;;;4999470;28;19921;-68
2022/12/22 06:21:48;;;;;;;;;;;8.80;99.90;;;;;;4995233;28;19913;-68
2022/12/22 06:24:13;;;;;;;;;;;8.80;99.90;;;;;;4996888;28;19922;-68
2022/12/22 06:26:39;;;;;;;;;;;8.70;99.90;;;;;;4996312;28;20396;-67
2022/12/22 06:29:04;;;;;;;;;;;8.80;99.90;;;;;;4994585;28;20056;-69
2022/12/22 06:31:30;;;;;;;;;;;8.80;99.90;;;;;;4999149;28;19921;-68
2022/12/22 06:33:56;;;;;;;;;;;8.80;99.90;;;;;;4999379;28;19913;-69
2022/12/22 06:36:22;;;;;;;;;;;8.80;99.90;;;;;;4982036;28;20061;-70
2022/12/22 06:38:47;;;;;;;;;;;8.80;99.90;;;;;;4998799;28;20346;-68
2022/12/22 06:41:13;;;;;;;;;;;8.90;99.90;;;;;;5007002;28;19961;-68
2022/12/22 06:43:38;;;;;;;;;;;8.90;99.90;;;;;;4997358;28;19953;-68
2022/12/22 06:46:04;;;;;;;;;;;9.00;99.90;;;;;;4998293;28;19969;-68
2022/12/22 06:48:29;;;;;;;;;;;9.10;99.90;;;;;;5009473;28;19917;-67
2022/12/22 06:50:58;;;;;;;;;;;9.00;99.90;;;;;;4996542;28;19972;-68
2022/12/22 06:53:24;;;;;;;;;;;9.10;99.90;;;;;;4995656;28;19921;-68
2022/12/22 06:55:49;;;;;;;;;;;9.00;99.90;;;;;;4994279;28;21643;-69
2022/12/22 06:58:15;;;;;;;;;;;9.10;99.90;;;;;;4994175;28;19922;-68
2022/12/22 07:00:41;;;;;;;;;;;9.00;99.90;;;;;;4994364;28;20016;-68
2022/12/22 07:03:07;;;;;;;;;;;9.00;99.90;;;;;;4993560;28;19914;-68
2022/12/22 07:05:33;;;;;;;;;;;9.10;99.90;;;;;;4998113;28;19972;-64
2022/12/22 07:07:58;;;;;;;;;;;9.00;99.90;;;;;;4994451;28;20013;-64
2022/12/22 07:10:56;;;;;;;;;;;9.00;99.90;;;;;;4995869;28;20002;-65
2022/12/22 07:13:18;;;;;;;;;;;9.10;99.90;;;;;;5001715;28;19924;-65
2022/12/22 07:15:44;;;;;;;;;;;9.00;99.90;;;;;;5004467;28;20230;-64
2022/12/22 07:18:11;;;;;;;;;;;9.00;99.90;;;;;;4995803;28;20076;-64
2022/12/22 07:20:36;;;;;;;;;;;9.00;99.90;;;;;;5005196;28;19933;-64
2022/12/22 07:23:02;;;;;;;;;;;9.00;99.90;;;;;;4999992;28;19921;-64
2022/12/22 07:25:27;;;;;;;;;;;8.90;99.90;;;;;;5000726;28;19918;-64
2022/12/22 07:27:53;;;;;;;;;;;8.90;99.90;;;;;;4995761;28;19918;-64
2022/12/22 07:30:18;;;;;;;;;;;8.90;99.90;;;;;;4996596;28;19922;-65
2022/12/22 07:32:44;;;;;;;;;;;8.80;99.90;;;;;;4994503;28;20012;-66
2022/12/22 07:35:09;;;;;;;;;;;8.80;99.90;;;;;;4995038;28;19922;-63
2022/12/22 07:37:35;;;;;;;;;;;8.80;99.90;;;;;;5004394;28;19913;-64
2022/12/22 07:40:00;;;;;;;;;;;8.80;99.90;;;;;;4995335;28;20420;-65
2022/12/22 07:42:44;;;;;;;;;;;8.80;99.90;;;;;;4998876;28;19918;-65
2022/12/22 07:45:11;;;;;;;;;;;8.80;99.90;;;;;;4995975;28;19914;-65
2022/12/22 07:47:36;;;;;;;;;;;8.80;99.90;;;;;;4996227;28;19980;-64
2022/12/22 07:52:46;;;;;;;;;;;8.80;99.90;;;;;;5000976;28;19967;-65
2022/12/22 07:55:13;;;;;;;;;;;8.90;99.90;;;;;;5005724;28;19918;-66
2022/12/22 07:57:38;;;;;;;;;;;9.00;99.90;;;;;;5006319;28;19913;-65
2022/12/22 08:00:04;;;;;;;;;;;8.90;99.90;;;;;;5011264;28;19924;-66
2022/12/22 08:02:29;;;;;;;;;;;9.00;99.90;;;;;;5008596;28;19949;-65
2022/12/22 08:04:55;;;;;;;;;;;9.00;99.90;;;;;;5010008;28;20297;-66
2022/12/22 08:07:20;;;;;;;;;;;9.10;99.90;;;;;;5007484;28;20300;-66
2022/12/22 08:09:46;;;;;;;;;;;9.00;99.90;;;;;;5011118;28;20349;-64
2022/12/22 08:12:12;;;;;;;;;;;9.10;99.90;;;;;;5009648;28;19992;-65
2022/12/22 08:14:37;;;;;;;;;;;9.00;99.90;;;;;;5010312;28;20313;-65
2022/12/22 08:17:03;;;;;;;;;;;9.10;99.90;;;;;;5006868;28;20294;-63
2022/12/22 08:19:28;;;;;;;;;;;9.10;99.90;;;;;;5013867;28;20312;-64
2022/12/22 08:21:54;;;;;;;;;;;9.00;99.90;;;;;;4991615;28;19952;-64
2022/12/22 08:24:20;;;;;;;;;;;9.10;99.90;;;;;;5008602;28;19996;-64
2022/12/22 08:26:46;;;;;;;;;;;9.20;99.90;;;;;;4994670;28;20001;-65
2022/12/22 08:29:18;;;;;;;;;;;9.30;99.90;;;;;;5010530;28;19914;-66
2022/12/22 08:31:43;;;;;;;;;;;9.40;99.90;;;;;;5003364;28;19921;-65
2022/12/22 08:34:11;;;;;;;;;;;9.50;99.90;;;;;;5010703;28;19979;-65
2022/12/22 08:36:39;;;;;;;;;;;9.50;99.90;;;;;;5003098;28;19918;-66
2022/12/22 08:39:04;;;;;;;;;;;9.40;99.90;;;;;;5017320;28;19913;-67
2022/12/22 08:41:48;;;;;;;;;;;9.50;99.90;;;;;;5005888;28;19922;-66
2022/12/22 08:44:14;;;;;;;;;;;9.50;99.90;;;;;;5005028;28;20008;-65
2022/12/22 08:46:40;;;;;;;;;;;9.40;99.90;;;;;;5010120;28;20012;-66
2022/12/22 08:49:06;;;;;;;;;;;9.40;99.90;;;;;;5010485;28;19945;-66
2022/12/22 08:51:32;;;;;;;;;;;9.50;99.90;;;;;;5003886;28;19957;-66
2022/12/22 08:53:57;;;;;;;;;;;9.60;99.90;;;;;;5006661;28;19924;-64
2022/12/22 08:56:23;;;;;;;;;;;9.70;99.90;;;;;;5000470;28;20292;-65
2022/12/22 08:58:48;;;;;;;;;;;9.70;99.90;;;;;;5004332;28;19913;-64
2022/12/22 09:01:15;;;;;;;;;;;9.80;99.90;;;;;;5009888;28;19959;-64
2022/12/22 09:03:41;;;;;;;;;;;9.90;99.90;;;;;;5003256;28;19914;-64
2022/12/22 09:06:06;;;;;;;;;;;10.00;99.90;;;;;;5003289;28;19951;-65
2022/12/22 09:08:32;;;;;;;;;;;10.10;99.90;;;;;;5007478;28;19967;-64
2022/12/22 09:11:01;;;;;;;;;;;10.10;99.90;;;;;;5006937;28;20264;-65
2022/12/22 09:13:27;;;;;;;;;;;10.10;99.90;;;;;;5008862;28;19997;-65
2022/12/22 09:15:52;;;;;;;;;;;10.10;99.90;;;;;;5012792;28;20020;-65
2022/12/22 09:18:18;;;;;;;;;;;10.10;99.90;;;;;;5009673;28;19914;-65
2022/12/22 09:20:43;;;;;;;;;;;10.20;99.90;;;;;;5002228;28;19922;-64
2022/12/22 09:23:09;;;;;;;;;;;10.20;99.90;;;;;;5011147;28;20032;-65
2022/12/22 09:25:35;;;;;;;;;;;10.10;99.90;;;;;;5004279;28;19921;-67
2022/12/22 09:28:00;;;;;;;;;;;10.10;99.90;;;;;;5014076;28;19922;-65
2022/12/22 09:30:26;;;;;;;;;;;10.00;99.90;;;;;;5004972;28;20373;-63
2022/12/22 09:32:53;;;;;;;;;;;10.00;99.90;;;;;;5011652;28;19913;-64
2022/12/22 09:35:18;;;;;;;;;;;10.00;99.90;;;;;;5010282;28;20381;-64
2022/12/22 09:37:44;;;;;;;;;;;9.90;99.90;;;;;;5008128;28;19920;-65
2022/12/22 09:40:10;;;;;;;;;;;10.00;99.90;;;;;;5013412;28;19920;-66
2022/12/22 09:42:37;;;;;;;;;;;10.10;99.90;;;;;;5004445;28;20405;-62
2022/12/22 09:45:02;;;;;;;;;;;10.00;99.90;;;;;;5006770;28;20377;-65
2022/12/22 09:47:36;;;;;;;;;;;10.10;99.90;;;;;;5004409;28;19976;-63
2022/12/22 09:50:03;;;;;;;;;;;10.10;99.90;;;;;;5003950;28;19967;-64
2022/12/22 09:52:35;;;;;;;;;;;10.20;99.90;;;;;;5011296;28;19920;-64
2022/12/22 09:55:11;;;;;;;;;;;10.30;99.90;;;;;;5007297;28;20587;-66
2022/12/22 09:57:36;;;;;;;;;;;10.20;99.90;;;;;;5009492;28;19943;-65
2022/12/22 10:00:12;;;;;;;;;;;9.90;99.90;;;;;;5009290;28;20001;-64
2022/12/22 10:03:00;;;;;;;;;;;9.80;99.90;;;;;;5012095;28;19913;-65
2022/12/22 10:05:31;;;;;;;;;;;9.70;99.90;;;;;;4979561;28;20007;-63
2022/12/22 10:08:01;;;;;;;;;;;9.60;99.90;;;;;;5002371;28;20388;-64
2022/12/22 10:10:28;;;;;;;;;;;9.60;99.90;;;;;;5005630;28;19913;-64
2022/12/22 10:12:55;;;;;;;;;;;9.60;99.90;;;;;;5009263;28;20411;-65
2022/12/22 10:15:21;;;;;;;;;;;9.50;99.90;;;;;;4989429;28;19990;-64
2022/12/22 10:17:49;;;;;;;;;;;9.50;99.90;;;;;;5007083;28;19914;-67
2022/12/22 10:20:17;;;;;;;;;;;9.60;99.90;;;;;;5010951;28;20380;-66
2022/12/22 10:22:46;;;;;;;;;;;9.60;99.90;;;;;;4988923;28;19921;-67
2022/12/22 10:25:24;;;;;;;;;;;9.60;99.90;;;;;;5014689;28;19913;-64
2022/12/22 10:27:49;;;;;;;;;;;9.60;99.90;;;;;;5009726;28;19991;-66
2022/12/22 10:30:16;;;;;;;;;;;9.50;99.90;;;;;;5013723;28;20014;-65
2022/12/22 10:32:42;;;;;;;;;;;9.50;99.90;;;;;;4987833;28;19920;-66
2022/12/22 10:35:08;;;;;;;;;;;9.50;99.90;;;;;;5007273;28;19913;-62
2022/12/22 10:37:37;;;;;;;;;;;9.50;99.90;;;;;;5002082;28;19913;-67
2022/12/22 10:40:16;;;;;;;;;;;9.60;99.90;;;;;;4998455;28;19917;-65
2022/12/22 10:42:46;;;;;;;;;;;9.60;99.90;;;;;;5001211;28;19918;-66
2022/12/22 10:45:16;;;;;;;;;;;9.60;99.90;;;;;;5000174;28;20234;-65
2022/12/22 10:47:46;;;;;;;;;;;9.60;99.90;;;;;;5009976;28;19925;-68
2022/12/22 10:50:11;;;;;;;;;;;9.60;99.90;;;;;;4998225;28;20343;-65
2022/12/22 10:52:37;;;;;;;;;;;9.50;99.90;;;;;;5007623;28;20016;-65
2022/12/22 10:55:15;;;;;;;;;;;9.50;99.90;;;;;;5014597;28;19917;-63
2022/12/22 10:57:40;;;;;;;;;;;9.50;99.90;;;;;;4999512;28;19921;-65
2022/12/22 11:00:25;;;;;;;;;;;9.50;99.90;;;;;;5005247;28;19914;-64
2022/12/22 11:02:51;;;;;;;;;;;9.60;99.90;;;;;;5005730;28;19921;-63
2022/12/22 11:05:17;;;;;;;;;;;9.60;99.90;;;;;;5011247;28;19995;-65
2022/12/22 11:07:44;;;;;;;;;;;9.60;99.90;;;;;;5013348;28;20048;-63
2022/12/22 11:10:13;;;;;;;;;;;9.70;99.90;;;;;;5002394;28;19914;-64
2022/12/22 11:12:56;;;;;;;;;;;9.70;99.90;;;;;;5013770;28;19920;-65
2022/12/22 11:15:32;;;;;;;;;;;9.70;99.90;;;;;;4986008;28;20003;-65
2022/12/22 11:18:16;;;;;;;;;;;9.70;99.90;;;;;;5006535;28;19914;-65
2022/12/22 11:21:00;;;;;;;;;;;9.70;99.90;;;;;;5002395;28;20009;-64
2022/12/22 11:23:31;;;;;;;;;;;9.60;99.90;;;;;;4997671;28;20398;-64
2022/12/22 11:26:15;;;;;;;;;;;9.60;99.90;;;;;;5012307;28;19917;-64
2022/12/22 11:28:59;;;;;;;;;;;9.60;99.90;;;;;;5012082;28;19921;-65
2022/12/22 11:31:43;;;;;;;;;;;9.60;99.90;;;;;;5004823;28;19921;-66
2022/12/22 11:34:23;;;;;;;;;;;9.50;99.90;;;;;;5011398;28;20324;-66
2022/12/22 11:36:52;;;;;;;;;;;9.40;99.90;;;;;;5014069;28;20077;-67
2022/12/22 11:39:23;;;;;;;;;;;9.50;99.90;;;;;;5012000;28;20281;-66
2022/12/22 11:42:06;;;;;;;;;;;9.50;99.90;;;;;;5005151;28;19914;-67
2022/12/22 11:44:50;;;;;;;;;;;9.60;99.90;;;;;;5008863;28;19920;-65
2022/12/22 11:47:31;;;;;;;;;;;9.60;99.90;;;;;;5006608;28;19917;-64
2022/12/22 11:49:57;;;;;;;;;;;9.50;99.90;;;;;;5011848;28;19913;-67
2022/12/22 11:52:25;;;;;;;;;;;9.50;99.90;;;;;;5006222;28;20303;-65
2022/12/22 11:55:10;;;;;;;;;;;9.60;99.90;;;;;;5005695;28;20395;-65
2022/12/22 11:57:36;;;;;;;;;;;9.60;99.90;;;;;;5005361;28;20428;-64
2022/12/22 12:00:07;;;;;;;;;;;9.50;99.90;;;;;;5009058;28;19960;-65
2022/12/22 12:02:44;;;;;;;;;;;9.40;99.90;;;;;;5001850;28;19921;-64
2022/12/22 12:05:18;;;;;;;;;;;9.30;99.90;;;;;;5006479;28;20337;-66
2022/12/22 12:07:53;;;;;;;;;;;9.30;99.90;;;;;;5013636;28;19922;-66
2022/12/22 12:10:30;;;;;;;;;;;9.30;99.90;;;;;;5004028;28;19914;-65
2022/12/22 12:12:59;;;;;;;;;;;9.30;99.90;;;;;;5005386;28;19918;-65
2022/12/22 12:15:24;;;;;;;;;;;9.30;99.90;;;;;;4999201;28;20273;-65
2022/12/22 12:17:56;;;;;;;;;;;9.30;99.90;;;;;;5008250;28;19921;-66
2022/12/22 12:20:28;;;;;;;;;;;9.40;99.90;;;;;;4996874;28;19925;-65
2022/12/22 12:23:12;;;;;;;;;;;9.40;99.90;;;;;;4996785;28;19913;-65
2022/12/22 12:25:40;;;;;;;;;;;9.30;99.90;;;;;;5001956;28;20457;-65
2022/12/22 12:28:24;;;;;;;;;;;9.30;99.90;;;;;;5007999;28;19960;-62
2022/12/22 12:30:52;;;;;;;;;;;9.30;99.90;;;;;;5007282;28;19976;-65
2022/12/22 12:33:21;;;;;;;;;;;9.20;99.90;;;;;;5002800;28;19922;-65
2022/12/22 12:35:47;;;;;;;;;;;9.20;99.90;;;;;;4997613;28;19913;-66
2022/12/22 12:38:18;;;;;;;;;;;9.20;99.90;;;;;;5009145;28;19924;-67
2022/12/22 12:40:51;;;;;;;;;;;9.10;99.90;;;;;;5004744;28;20507;-65
2022/12/22 12:43:17;;;;;;;;;;;9.00;99.90;;;;;;5004257;28;20313;-65
2022/12/22 12:45:44;;;;;;;;;;;9.00;99.90;;;;;;4997105;28;20385;-64
2022/12/22 12:48:19;;;;;;;;;;;9.00;99.90;;;;;;5006327;28;19913;-69
2022/12/22 12:50:45;;;;;;;;;;;9.00;99.90;;;;;;5000371;28;20293;-66
2022/12/22 12:53:10;;;;;;;;;;;9.00;99.90;;;;;;5005763;28;19913;-65
2022/12/22 12:55:39;;;;;;;;;;;8.90;99.90;;;;;;4990560;28;19914;-64
2022/12/22 12:58:09;;;;;;;;;;;8.90;99.90;;;;;;5004540;28;19949;-65
2022/12/22 13:00:34;;;;;;;;;;;8.90;99.90;;;;;;5023079;28;19917;-65
2022/12/22 13:03:38;;;;;;;;;;;8.90;99.90;;;;;;5013420;28;19963;-65
2022/12/22 13:06:05;;;;;;;;;;;8.90;99.90;;;;;;4970356;28;20009;-64
2022/12/22 13:08:31;;;;;;;;;;;8.80;99.90;;;;;;4977937;28;19925;-63
2022/12/22 13:10:57;;;;;;;;;;;8.80;99.90;;;;;;4988782;28;19929;-65
2022/12/22 13:13:23;;;;;;;;;;;8.80;99.90;;;;;;5017786;28;20518;-65
2022/12/22 13:16:09;;;;;;;;;;;8.90;99.90;;;;;;5002970;28;19917;-65
2022/12/22 13:18:44;;;;;;;;;;;9.00;99.90;;;;;;5014114;28;20281;-63
2022/12/22 13:21:26;;;;;;;;;;;9.00;99.90;;;;;;5013573;28;20401;-65
2022/12/22 13:23:54;;;;;;;;;;;9.00;99.90;;;;;;5018908;28;19922;-64
2022/12/22 13:26:21;;;;;;;;;;;9.10;99.90;;;;;;5008389;28;20009;-64
2022/12/22 13:28:50;;;;;;;;;;;9.00;99.90;;;;;;5017997;28;19913;-65
2022/12/22 13:31:20;;;;;;;;;;;9.10;99.90;;;;;;5018778;28;19928;-65
2022/12/22 13:33:48;;;;;;;;;;;9.10;99.90;;;;;;5019640;28;19945;-64
2022/12/22 13:36:23;;;;;;;;;;;9.00;99.90;;;;;;4992203;28;19913;-62
2022/12/22 13:38:58;;;;;;;;;;;9.00;99.90;;;;;;5007332;28;20325;-64
2022/12/22 13:41:24;;;;;;;;;;;9.00;99.90;;;;;;5012266;28;19967;-65
2022/12/22 13:44:01;;;;;;;;;;;9.00;99.90;;;;;;5000118;28;19922;-64
2022/12/22 13:46:27;;;;;;;;;;;9.00;99.90;;;;;;5010452;28;19921;-66
2022/12/22 13:48:54;;;;;;;;;;;9.10;99.90;;;;;;5005219;28;19913;-63
2022/12/22 13:51:21;;;;;;;;;;;9.10;99.90;;;;;;5003147;28;19913;-63
2022/12/22 13:53:51;;;;;;;;;;;9.10;99.90;;;;;;5009392;28;20428;-63
2022/12/22 13:56:21;;;;;;;;;;;9.10;99.90;;;;;;5011112;28;19995;-63
2022/12/22 13:58:50;;;;;;;;;;;9.10;99.90;;;;;;5012026;28;19972;-64
2022/12/22 14:01:17;;;;;;;;;;;9.00;99.90;;;;;;5006100;28;19941;-63
2022/12/22 14:04:02;;;;;;;;;;;9.10;99.90;;;;;;5012437;28;19917;-65
2022/12/22 14:06:32;;;;;;;;;;;9.10;99.90;;;;;;5008005;28;20036;-63
2022/12/22 14:09:10;;;;;;;;;;;9.10;99.90;;;;;;4996762;28;19914;-65
2022/12/22 14:11:36;;;;;;;;;;;9.10;99.90;;;;;;5009228;28;19967;-65
2022/12/22 14:14:05;;;;;;;;;;;9.10;99.90;;;;;;5021464;28;19913;-64
2022/12/22 14:16:31;;;;;;;;;;;9.00;99.90;;;;;;5022265;28;19945;-65
2022/12/22 14:18:58;;;;;;;;;;;9.00;99.90;;;;;;5020141;28;19968;-63
2022/12/22 14:21:24;;;;;;;;;;;8.90;99.90;;;;;;5021488;28;19917;-62
2022/12/22 14:23:50;;;;;;;;;;;8.90;99.90;;;;;;5013875;28;19941;-64
2022/12/22 14:26:17;;;;;;;;;;;8.90;99.90;;;;;;5014646;28;19930;-65
2022/12/22 14:28:49;;;;;;;;;;;9.00;99.90;;;;;;5015847;28;20309;-65
2022/12/22 14:31:15;;;;;;;;;;;9.00;99.90;;;;;;5021257;28;20360;-63
2022/12/22 14:34:04;;;;;;;;;;;9.10;99.90;;;;;;5001355;28;20020;-64
2022/12/22 14:36:44;;;;;;;;;;;9.10;99.90;;;;;;5015001;28;19920;-64
2022/12/22 14:39:19;;;;;;;;;;;9.10;99.90;;;;;;4994004;28;19913;-62
2022/12/22 14:41:50;;;;;;;;;;;9.10;99.90;;;;;;5011666;28;20125;-64
2022/12/22 14:44:21;;;;;;;;;;;9.00;99.90;;;;;;5016397;28;19920;-63
2022/12/22 14:47:05;;;;;;;;;;;9.10;99.90;;;;;;5017050;28;20004;-61
2022/12/22 14:49:32;;;;;;;;;;;9.10;99.90;;;;;;5012891;28;19920;-61
2022/12/22 14:52:02;;;;;;;;;;;9.20;99.90;;;;;;5018574;28;19913;-64
2022/12/22 14:54:27;;;;;;;;;;;9.20;99.90;;;;;;5012569;28;20012;-64
2022/12/22 14:56:57;;;;;;;;;;;9.10;99.90;;;;;;5001453;28;20005;-64
2022/12/22 14:59:24;;;;;;;;;;;9.10;99.90;;;;;;5011920;28;19922;-64
2022/12/22 15:02:00;;;;;;;;;;;9.10;99.90;;;;;;5007736;28;20674;-63
2022/12/22 15:04:26;;;;;;;;;;;9.10;99.90;;;;;;5015334;28;20008;-64
2022/12/22 15:07:02;;;;;;;;;;;9.10;99.90;;;;;;5012438;28;20417;-62
2022/12/22 15:09:28;;;;;;;;;;;9.10;99.90;;;;;;5011424;28;19924;-63
2022/12/22 15:12:05;;;;;;;;;;;9.10;99.90;;;;;;5020349;28;19921;-65
2022/12/22 15:14:33;;;;;;;;;;;9.10;99.90;;;;;;5011112;28;19978;-61
2022/12/22 15:17:00;;;;;;;;;;;9.20;99.90;;;;;;5016781;28;19921;-64
2022/12/22 15:19:27;;;;;;;;;;;9.20;99.90;;;;;;5017429;28;19968;-64
2022/12/22 15:21:53;;;;;;;;;;;9.20;99.90;;;;;;5013788;28;20385;-65
2022/12/22 15:24:18;;;;;;;;;;;9.20;99.90;;;;;;5023586;28;19910;-64
2022/12/22 15:26:44;;;;;;;;;;;9.30;99.90;;;;;;5021497;28;19939;-64
2022/12/22 15:29:10;;;;;;;;;;;9.20;99.90;;;;;;5014190;28;19909;-63
2022/12/22 15:31:37;;;;;;;;;;;9.20;99.90;;;;;;5006941;28;19920;-65
2022/12/22 15:34:03;;;;;;;;;;;9.20;99.90;;;;;;4995207;28;19980;-65
2022/12/22 15:36:28;;;;;;;;;;;9.20;99.90;;;;;;5010406;28;19985;-65
2022/12/22 15:38:54;;;;;;;;;;;9.10;99.90;;;;;;5011475;28;20485;-65
2022/12/22 15:41:19;;;;;;;;;;;9.20;99.90;;;;;;5008556;28;20384;-66
2022/12/22 15:43:45;;;;;;;;;;;9.20;99.90;;;;;;4991643;28;19932;-63
2022/12/22 15:46:13;;;;;;;;;;;9.20;99.90;;;;;;5017445;28;19997;-64
2022/12/22 15:48:39;;;;;;;;;;;9.20;99.90;;;;;;5011088;28;19917;-64
2022/12/22 15:51:06;;;;;;;;;;;9.20;99.90;;;;;;5011447;28;19914;-64
2022/12/22 15:53:32;;;;;;;;;;;9.30;99.90;;;;;;5011382;28;19988;-64
2022/12/22 15:55:58;;;;;;;;;;;9.30;99.90;;;;;;5011249;28;19913;-67
2022/12/22 15:58:27;;;;;;;;;;;9.30;99.90;;;;;;5003937;28;20363;-67
2022/12/22 16:00:53;;;;;;;;;;;9.40;99.90;;;;;;5012409;28;19921;-66
2022/12/22 16:03:19;;;;;;;;;;;9.40;99.90;;;;;;5008448;28;19944;-67
2022/12/22 16:05:51;;;;;;;;;;;9.40;99.90;;;;;;5010584;28;20090;-65
2022/12/22 16:08:26;;;;;;;;;;;9.40;99.90;;;;;;4992566;28;19997;-65
2022/12/22 16:10:55;;;;;;;;;;;9.40;99.90;;;;;;4989541;28;20461;-66
2022/12/22 16:13:27;;;;;;;;;;;9.50;99.90;;;;;;5013561;28;19913;-67
2022/12/22 16:16:15;;;;;;;;;;;;;;;;;;;;;
2022/12/22 16:18:41;;;;;;;;;;;9.50;99.90;;;;;;5002781;28;20362;-66
2022/12/22 16:21:12;;;;;;;;;;;9.50;99.90;;;;;;5007788;28;20020;-65
2022/12/22 16:23:40;;;;;;;;;;;9.60;99.90;;;;;;5007977;28;19985;-66
2022/12/22 16:26:05;;;;;;;;;;;9.50;99.90;;;;;;5013997;28;20800;-66
2022/12/22 16:28:31;;;;;;;;;;;9.50;99.90;;;;;;5004492;28;19921;-64
2022/12/22 16:30:58;;;;;;;;;;;9.50;99.90;;;;;;4988299;28;19949;-67
2022/12/22 16:33:23;;;;;;;;;;;9.40;99.90;;;;;;5007702;28;19917;-63
2022/12/22 16:35:49;;;;;;;;;;;9.40;99.90;;;;;;5004951;28;19918;-67
2022/12/22 16:38:14;;;;;;;;;;;9.50;99.90;;;;;;5018230;28;19992;-68
2022/12/22 16:40:42;;;;;;;;;;;9.50;99.90;;;;;;5006616;28;19920;-67
2022/12/22 16:43:16;;;;;;;;;;;9.50;99.90;;;;;;5009168;28;19984;-66
2022/12/22 16:45:45;;;;;;;;;;;9.50;99.90;;;;;;5003472;28;20346;-64
2022/12/22 16:48:13;;;;;;;;;;;9.40;99.90;;;;;;5009530;28;19917;-68
2022/12/22 16:50:42;;;;;;;;;;;9.50;99.90;;;;;;5010260;28;19913;-67
2022/12/22 16:53:09;;;;;;;;;;;9.50;99.90;;;;;;5018797;28;20381;-66
2022/12/22 16:55:34;;;;;;;;;;;9.50;99.90;;;;;;5001592;28;20633;-67
2022/12/22 16:58:00;;;;;;;;;;;9.50;99.90;;;;;;5008435;28;19989;-65
2022/12/22 17:00:28;;;;;;;;;;;9.40;99.90;;;;;;5008148;28;19984;-66
2022/12/22 17:02:55;;;;;;;;;;;9.40;99.90;;;;;;5016096;28;19924;-67
2022/12/22 17:05:23;;;;;;;;;;;9.40;99.90;;;;;;5008363;28;19925;-65
2022/12/22 17:07:49;;;;;;;;;;;9.40;99.90;;;;;;5014630;28;19924;-66
2022/12/22 17:10:16;;;;;;;;;;;9.50;99.90;;;;;;5007403;28;19917;-66
2022/12/22 17:12:41;;;;;;;;;;;9.50;99.90;;;;;;5011307;28;19968;-66
2022/12/22 17:15:15;;;;;;;;;;;9.50;99.90;;;;;;5012514;28;19913;-66
2022/12/22 17:17:40;;;;;;;;;;;9.50;99.90;;;;;;5010107;28;20008;-64
2022/12/22 17:20:06;;;;;;;;;;;9.50;99.90;;;;;;4987755;28;20437;-65
2022/12/22 17:22:32;;;;;;;;;;;9.40;99.90;;;;;;5010973;28;19914;-66
2022/12/22 17:25:00;;;;;;;;;;;9.40;99.90;;;;;;5010780;28;19920;-64
2022/12/22 17:27:28;;;;;;;;;;;9.40;99.90;;;;;;5002837;28;19917;-66
2022/12/22 17:29:53;;;;;;;;;;;9.50;99.90;;;;;;5000999;28;20124;-66
2022/12/22 17:32:20;;;;;;;;;;;9.40;99.90;;;;;;4999726;28;20770;-66
2022/12/22 17:34:46;;;;;;;;;;;9.40;99.90;;;;;;5009149;28;20509;-66
2022/12/22 17:37:13;;;;;;;;;;;9.40;99.90;;;;;;5018173;28;19914;-66
2022/12/22 17:39:39;;;;;;;;;;;9.40;99.90;;;;;;5014471;28;19920;-67
2022/12/22 17:42:14;;;;;;;;;;;9.40;99.90;;;;;;5016204;28;19929;-66
2022/12/22 17:44:40;;;;;;;;;;;9.40;99.90;;;;;;5014208;28;19960;-66
2022/12/22 17:47:05;;;;;;;;;;;9.40;99.90;;;;;;5012378;28;19914;-66
2022/12/22 17:49:31;;;;;;;;;;;9.40;99.90;;;;;;5014643;28;19914;-65
2022/12/22 17:51:57;;;;;;;;;;;9.50;99.90;;;;;;5016217;28;20000;-66
2022/12/22 17:54:23;;;;;;;;;;;9.50;99.90;;;;;;5015039;28;20363;-66
2022/12/22 17:56:49;;;;;;;;;;;9.50;99.90;;;;;;5011366;28;19913;-67
2022/12/22 17:59:14;;;;;;;;;;;9.50;99.90;;;;;;5004734;28;19924;-66
2022/12/22 18:01:40;;;;;;;;;;;9.50;99.90;;;;;;5013236;28;19910;-66
2022/12/22 18:04:08;;;;;;;;;;;9.50;99.90;;;;;;5012696;28;19921;-66
2022/12/22 18:06:35;;;;;;;;;;;9.50;99.90;;;;;;5010908;28;19913;-66
2022/12/22 18:09:01;;;;;;;;;;;9.50;99.90;;;;;;5010989;28;19913;-66
2022/12/22 18:11:27;;;;;;;;;;;9.50;99.90;;;;;;5011285;28;19909;-66
2022/12/22 18:13:52;;;;;;;;;;;9.50;99.90;;;;;;5010685;28;20301;-65
2022/12/22 18:16:19;;;;;;;;;;;9.50;99.90;;;;;;5011717;28;20280;-65